Spirit Of Hamburg — 9V2497 — position and weather

sailwx.info

Track history (hours):
 
Tides and Currents Weather Stations Pressure Air Temp Water Temp Dewpoint Dewpoint Depression Visibility Wind Speed Wind Dir Waves Ship Positions

Spirit Of Hamburg

Last reported at 2017-Nov-09 12:21 UTC. Time now 2017-Nov-22 02:04 UTC.
Position N 10°16' W 075°52'.
Warning: this ship's position is 12 days out of date.

Length 254 m; draft 10.3 m.

Type: Cargo ship. MMSI: 564061000.

Date/timePositionNaut miles runAvg speedWind from/ knotsBaromVisibWave heightAir tempDewpointWater temp
2017-Nov-09 12:21N 10°16' W 075°52'412.6
2017-Nov-09 11:59N 10°16' W 075°48'612.6
2017-Nov-09 11:30N 10°18' W 075°42'612.7
2017-Nov-09 11:00N 10°19' W 075°35'5 9.9
2017-Nov-09 10:30N 10°22' W 075°31'1 1.8
2017-Nov-09 10:00N 10°23' W 075°31'0 0.0
2017-Nov-09 09:28N 10°23' W 075°31'0 0.0
2017-Nov-09 08:07N 10°23' W 075°31'0 0.0
2017-Nov-09 07:58N 10°23' W 075°31'0 0.0
2017-Nov-09 07:25N 10°23' W 075°31'0 0.1
2017-Nov-09 06:58N 10°23' W 075°31'0 0.0
2017-Nov-09 06:28N 10°23' W 075°31'0 0.0
2017-Nov-09 05:55N 10°23' W 075°31'0 0.0
2017-Nov-09 05:28N 10°23' W 075°31'0 0.0
2017-Nov-09 04:55N 10°23' W 075°31'0 0.0
2017-Nov-09 04:25N 10°23' W 075°31'0 0.0
2017-Nov-09 03:49N 10°23' W 075°31'0 0.0
2017-Nov-09 03:25N 10°23' W 075°31'0 0.0
2017-Nov-09 02:55N 10°23' W 075°31'0 0.0
2017-Nov-09 02:25N 10°23' W 075°31'0 0.0
2017-Nov-09 01:55N 10°23' W 075°31'0 0.0
2017-Nov-09 01:28N 10°23' W 075°31'0 0.0
2017-Nov-09 00:58N 10°23' W 075°31'0 0.0
2017-Nov-09 00:28N 10°23' W 075°31'0 0.0
2017-Nov-08 23:49N 10°23' W 075°31'0 0.0
2017-Nov-08 23:25N 10°23' W 075°31'0 0.0
2017-Nov-08 22:58N 10°23' W 075°31'0 0.0
2017-Nov-08 22:28N 10°23' W 075°31'0 0.0
2017-Nov-08 21:55N 10°23' W 075°31'0 0.0
2017-Nov-08 21:25N 10°23' W 075°31'0 0.2
2017-Nov-08 21:01N 10°23' W 075°31'2 3.4
2017-Nov-08 20:30N 10°21' W 075°32'5 9.5
2017-Nov-08 20:00N 10°19' W 075°36'2 3.6
2017-Nov-08 19:30N 10°19' W 075°38'5 9.7
2017-Nov-08 18:57N 10°20' W 075°43'4 8.9
2017-Nov-08 18:30N 10°23' W 075°45'611.9
2017-Nov-08 18:00N 10°29' W 075°45'  
2017-Nov-03 07:20N 32°43' W 079°48'1612.5
2017-Nov-03 06:04N 32°35' W 079°32'4 9.5
2017-Nov-03 05:38N 32°34' W 079°28'39216.5
2017-Nov-02 05:53N 37°47' W 074°39'819.8
2017-Nov-02 05:31N 37°54' W 074°39'1019.8
2017-Nov-02 05:01N 38°04' W 074°39'1019.8
2017-Nov-02 04:31N 38°14' W 074°40'1019.9
2017-Nov-02 04:01N 38°24' W 074°42'1019.1
2017-Nov-02 03:31N 38°32' W 074°48'611.5
2017-Nov-02 03:01N 38°37' W 074°53'510.0
2017-Nov-02 02:31N 38°41' W 074°57'510.2
2017-Nov-02 02:01N 38°45' W 075°01'510.1
2017-Nov-02 01:31N 38°49' W 075°04'714.5
2017-Nov-02 01:00N 38°56' W 075°06'918.1
2017-Nov-02 00:30N 39°05' W 075°11'815.5
2017-Nov-02 00:00N 39°11' W 075°17'816.2
2017-Nov-01 23:30N 39°18' W 075°23'816.2
2017-Nov-01 23:00N 39°24' W 075°29'714.6
2017-Nov-01 22:31N 39°30' W 075°33'713.4
2017-Nov-01 22:01N 39°37' W 075°35'713.4
2017-Nov-01 21:30N 39°43' W 075°30'5 9.6
2017-Nov-01 21:00N 39°47' W 075°27'4 7.2
2017-Nov-01 20:31N 39°49' W 075°23'4 8.9
2017-Nov-01 20:00N 39°51' W 075°18'4 8.1
2017-Nov-01 19:30N 39°52' W 075°13'4 8.1
2017-Nov-01 19:00N 39°54' W 075°08'1 1.1
2017-Nov-01 18:28N 39°54' W 075°08'0 0.0
2017-Nov-01 01:58N 39°54' W 075°08'0 0.0
2017-Nov-01 01:28N 39°54' W 075°08'0 0.0
2017-Nov-01 00:58N 39°54' W 075°08'0 0.0
2017-Nov-01 00:28N 39°54' W 075°08'0 0.1
2017-Nov-01 00:00N 39°54' W 075°08'1 3.0
2017-Oct-31 23:30N 39°53' W 075°09'3 6.6
2017-Oct-31 23:01N 39°52' W 075°13'4 8.2
2017-Oct-31 22:31N 39°51' W 075°18'5 9.1
2017-Oct-31 22:01N 39°49' W 075°24'4 7.3
2017-Oct-31 21:31N 39°47' W 075°28'5 9.6
2017-Oct-31 21:01N 39°43' W 075°31'510.6
2017-Oct-31 20:31N 39°38' W 075°34'5 9.8
2017-Oct-31 20:01N 39°33' W 075°33'5 9.9
2017-Oct-31 19:30N 39°28' W 075°34'5 9.8
2017-Oct-31 19:00N 39°24' W 075°30'5 9.9
2017-Oct-31 18:30N 39°21' W 075°26'715.0
2017-Oct-31 18:01N 39°15' W 075°19'815.6
2017-Oct-31 17:31N 39°08' W 075°14'816.1
2017-Oct-31 17:00N 39°01' W 075°09'816.3
2017-Oct-31 16:30N 38°54' W 075°05'  
Track history (hours):
 
Tides and Currents Weather Stations Pressure Air Temp Water Temp Dewpoint Dewpoint Depression Visibility Wind Speed Wind Dir Waves Ship Positions

Spirit Of Hamburg

Last reported at 2017-Nov-09 12:21 UTC. Time now 2017-Nov-22 02:04 UTC.
Position N 10°16' W 075°52'.
Warning: this ship's position is 12 days out of date.

Length 254 m; draft 10.3 m.

Type: Cargo ship. MMSI: 564061000.

Date/timePositionNaut miles runAvg speedWind from/ knotsBaromVisibWave heightAir tempDewpointWater temp
2017-Nov-09 12:21N 10°16' W 075°52'412.6
2017-Nov-09 11:59N 10°16' W 075°48'612.6
2017-Nov-09 11:30N 10°18' W 075°42'612.7
2017-Nov-09 11:00N 10°19' W 075°35'5 9.9
2017-Nov-09 10:30N 10°22' W 075°31'1 1.8
2017-Nov-09 10:00N 10°23' W 075°31'0 0.0
2017-Nov-09 09:28N 10°23' W 075°31'0 0.0
2017-Nov-09 08:07N 10°23' W 075°31'0 0.0
2017-Nov-09 07:58N 10°23' W 075°31'0 0.0
2017-Nov-09 07:25N 10°23' W 075°31'0 0.1
2017-Nov-09 06:58N 10°23' W 075°31'0 0.0
2017-Nov-09 06:28N 10°23' W 075°31'0 0.0
2017-Nov-09 05:55N 10°23' W 075°31'0 0.0
2017-Nov-09 05:28N 10°23' W 075°31'0 0.0
2017-Nov-09 04:55N 10°23' W 075°31'0 0.0
2017-Nov-09 04:25N 10°23' W 075°31'0 0.0
2017-Nov-09 03:49N 10°23' W 075°31'0 0.0
2017-Nov-09 03:25N 10°23' W 075°31'0 0.0
2017-Nov-09 02:55N 10°23' W 075°31'0 0.0
2017-Nov-09 02:25N 10°23' W 075°31'0 0.0
2017-Nov-09 01:55N 10°23' W 075°31'0 0.0
2017-Nov-09 01:28N 10°23' W 075°31'0 0.0
2017-Nov-09 00:58N 10°23' W 075°31'0 0.0
2017-Nov-09 00:28N 10°23' W 075°31'0 0.0
2017-Nov-08 23:49N 10°23' W 075°31'0 0.0
2017-Nov-08 23:25N 10°23' W 075°31'0 0.0
2017-Nov-08 22:58N 10°23' W 075°31'0 0.0
2017-Nov-08 22:28N 10°23' W 075°31'0 0.0
2017-Nov-08 21:55N 10°23' W 075°31'0 0.0
2017-Nov-08 21:25N 10°23' W 075°31'0 0.2
2017-Nov-08 21:01N 10°23' W 075°31'2 3.4
2017-Nov-08 20:30N 10°21' W 075°32'5 9.5
2017-Nov-08 20:00N 10°19' W 075°36'2 3.6
2017-Nov-08 19:30N 10°19' W 075°38'5 9.7
2017-Nov-08 18:57N 10°20' W 075°43'4 8.9
2017-Nov-08 18:30N 10°23' W 075°45'611.9
2017-Nov-08 18:00N 10°29' W 075°45'  
2017-Nov-03 07:20N 32°43' W 079°48'1612.5
2017-Nov-03 06:04N 32°35' W 079°32'4 9.5
2017-Nov-03 05:38N 32°34' W 079°28'39216.5
2017-Nov-02 05:53N 37°47' W 074°39'819.8
2017-Nov-02 05:31N 37°54' W 074°39'1019.8
2017-Nov-02 05:01N 38°04' W 074°39'1019.8
2017-Nov-02 04:31N 38°14' W 074°40'1019.9
2017-Nov-02 04:01N 38°24' W 074°42'1019.1
2017-Nov-02 03:31N 38°32' W 074°48'611.5
2017-Nov-02 03:01N 38°37' W 074°53'510.0
2017-Nov-02 02:31N 38°41' W 074°57'510.2
2017-Nov-02 02:01N 38°45' W 075°01'510.1
2017-Nov-02 01:31N 38°49' W 075°04'714.5
2017-Nov-02 01:00N 38°56' W 075°06'918.1
2017-Nov-02 00:30N 39°05' W 075°11'815.5
2017-Nov-02 00:00N 39°11' W 075°17'816.2
2017-Nov-01 23:30N 39°18' W 075°23'816.2
2017-Nov-01 23:00N 39°24' W 075°29'714.6
2017-Nov-01 22:31N 39°30' W 075°33'713.4
2017-Nov-01 22:01N 39°37' W 075°35'713.4
2017-Nov-01 21:30N 39°43' W 075°30'5 9.6
2017-Nov-01 21:00N 39°47' W 075°27'4 7.2
2017-Nov-01 20:31N 39°49' W 075°23'4 8.9
2017-Nov-01 20:00N 39°51' W 075°18'4 8.1
2017-Nov-01 19:30N 39°52' W 075°13'4 8.1
2017-Nov-01 19:00N 39°54' W 075°08'1 1.1
2017-Nov-01 18:28N 39°54' W 075°08'0 0.0
2017-Nov-01 01:58N 39°54' W 075°08'0 0.0
2017-Nov-01 01:28N 39°54' W 075°08'0 0.0
2017-Nov-01 00:58N 39°54' W 075°08'0 0.0
2017-Nov-01 00:28N 39°54' W 075°08'0 0.1
2017-Nov-01 00:00N 39°54' W 075°08'1 3.0
2017-Oct-31 23:30N 39°53' W 075°09'3 6.6
2017-Oct-31 23:01N 39°52' W 075°13'4 8.2
2017-Oct-31 22:31N 39°51' W 075°18'5 9.1
2017-Oct-31 22:01N 39°49' W 075°24'4 7.3
2017-Oct-31 21:31N 39°47' W 075°28'5 9.6
2017-Oct-31 21:01N 39°43' W 075°31'510.6
2017-Oct-31 20:31N 39°38' W 075°34'5 9.8
2017-Oct-31 20:01N 39°33' W 075°33'5 9.9
2017-Oct-31 19:30N 39°28' W 075°34'5 9.8
2017-Oct-31 19:00N 39°24' W 075°30'5 9.9
2017-Oct-31 18:30N 39°21' W 075°26'715.0
2017-Oct-31 18:01N 39°15' W 075°19'815.6
2017-Oct-31 17:31N 39°08' W 075°14'816.1
2017-Oct-31 17:00N 39°01' W 075°09'816.3
2017-Oct-31 16:30N 38°54' W 075°05'  

Dump ship's entire track history